createdAt,value
2017-04-09T08:59:25.926Z,49.85
2017-04-09T09:00:37.179Z,49.56
2017-04-09T09:01:35.565Z,58.62
2017-04-09T09:02:33.938Z,47.30
2017-04-09T09:03:32.294Z,53.24
2017-04-09T09:04:30.637Z,54.76
2017-04-09T09:05:29.085Z,59.76
2017-04-09T09:06:28.178Z,54.80
2017-04-09T09:07:26.553Z,52.74
2017-04-09T09:08:25.153Z,51.06
2017-04-09T09:09:23.637Z,46.20
2017-04-09T09:10:22.156Z,51.72
2017-04-09T09:11:21.041Z,48.96
2017-04-09T09:12:19.439Z,49.94
2017-04-09T09:13:17.764Z,53.86
2017-04-09T09:14:16.072Z,54.72
2017-04-09T09:15:14.424Z,48.46
2017-04-09T09:16:12.739Z,53.38
2017-04-09T09:17:11.078Z,52.36
2017-04-09T09:18:09.423Z,53.32
2017-04-09T09:19:07.939Z,54.30
2017-04-09T09:20:06.552Z,50.68
2017-04-09T09:21:04.892Z,51.14
2017-04-09T09:22:03.264Z,50.38
2017-04-09T09:23:01.622Z,57.18
2017-04-09T09:23:59.954Z,50.90
2017-04-09T09:24:58.331Z,53.98
2017-04-09T09:25:56.919Z,53.92
2017-04-09T09:26:55.273Z,50.00
2017-04-09T09:27:53.673Z,54.76
2017-04-09T09:28:52.079Z,52.50
2017-04-09T09:29:50.399Z,50.92
2017-04-09T09:30:48.710Z,49.14
2017-04-09T09:31:47.109Z,52.80
2017-04-09T09:32:45.539Z,54.00
2017-04-09T09:33:43.897Z,49.14
2017-04-09T09:34:42.317Z,51.30
2017-04-09T09:35:40.639Z,47.84
2017-04-09T09:36:39.171Z,53.34
2017-04-09T09:37:37.681Z,48.28
2017-04-09T09:38:36.059Z,49.32
2017-04-09T09:39:35.169Z,52.44
2017-04-09T09:40:34.298Z,52.42
2017-04-09T09:41:32.652Z,52.92
2017-04-09T09:42:30.991Z,51.40
2017-04-09T09:43:29.443Z,55.80
2017-04-09T09:44:28.590Z,49.96
2017-04-09T09:45:27.010Z,46.60
2017-04-09T09:46:26.125Z,48.60
2017-04-09T09:47:24.558Z,49.04
2017-04-09T09:48:23.678Z,54.10
2017-04-09T09:49:22.131Z,50.96
2017-04-09T09:50:20.470Z,54.66
2017-04-09T09:51:18.777Z,53.68
2017-04-09T09:52:17.106Z,50.20
2017-04-09T09:53:16.243Z,51.52
2017-04-09T09:54:15.033Z,48.12
2017-04-09T09:55:13.500Z,52.56
2017-04-09T09:56:11.831Z,49.70
2017-04-09T09:57:10.291Z,56.44
2017-04-09T09:58:08.679Z,58.28
2017-04-09T09:59:07.037Z,50.18
2017-04-09T10:00:05.601Z,52.28
2017-04-09T10:01:03.978Z,49.50
2017-04-09T10:02:02.671Z,54.70
2017-04-09T10:03:00.968Z,53.68
2017-04-09T10:03:59.269Z,48.62
2017-04-09T10:04:57.582Z,52.30
2017-04-09T10:05:56.269Z,49.30
2017-04-09T10:06:54.930Z,50.88
2017-04-09T10:07:53.275Z,51.02
2017-04-09T10:08:51.582Z,50.92
2017-04-09T10:09:49.915Z,57.24
2017-04-09T10:10:48.252Z,48.06
2017-04-09T10:11:46.598Z,52.44
2017-04-09T10:12:45.001Z,51.04
2017-04-09T10:13:43.355Z,52.10
2017-04-09T10:14:41.678Z,50.50
2017-04-09T10:15:40.019Z,48.80
2017-04-09T10:16:38.367Z,49.70
2017-04-09T10:17:36.692Z,48.70
2017-04-09T10:18:35.107Z,50.80
2017-04-09T10:19:33.430Z,47.94
2017-04-09T10:20:31.789Z,50.04
2017-04-09T10:21:30.279Z,48.96
2017-04-09T10:22:28.802Z,51.60
2017-04-09T10:23:27.172Z,51.46
2017-04-09T10:24:25.603Z,51.70
2017-04-09T10:25:23.938Z,54.92
2017-04-09T10:26:22.266Z,48.00
2017-04-09T10:27:21.393Z,53.08
2017-04-09T10:28:19.801Z,51.56
2017-04-09T10:29:18.871Z,51.98
2017-04-09T10:30:17.309Z,50.98
2017-04-09T10:31:15.629Z,54.24
2017-04-09T10:32:13.918Z,49.78
2017-04-09T10:33:12.271Z,51.52
2017-04-09T10:34:11.387Z,49.36
2017-04-09T10:35:09.692Z,49.48
2017-04-09T10:36:08.200Z,54.20
2017-04-09T10:37:06.521Z,52.00
2017-04-09T10:38:04.839Z,48.44
2017-04-09T10:39:03.150Z,47.54
2017-04-09T10:40:01.479Z,51.34
2017-04-09T10:40:59.959Z,49.00
2017-04-09T10:41:58.642Z,45.66
2017-04-09T10:42:57.090Z,46.78
2017-04-09T10:43:55.467Z,47.42
2017-04-09T10:44:53.799Z,51.72
2017-04-09T10:45:52.902Z,52.90
2017-04-09T10:46:51.277Z,54.44
2017-04-09T10:47:49.678Z,46.16
2017-04-09T10:48:47.997Z,52.58
2017-04-09T10:49:46.318Z,52.76
2017-04-09T10:50:44.625Z,54.28
2017-04-09T10:51:42.969Z,47.26
2017-04-09T10:52:41.299Z,47.96
2017-04-09T10:53:39.702Z,50.36
2017-04-09T10:54:38.005Z,47.50
2017-04-09T10:55:37.139Z,49.86
2017-04-09T10:56:35.627Z,49.06
2017-04-09T10:57:34.017Z,53.68
2017-04-09T10:58:33.095Z,47.12
2017-04-09T10:59:31.476Z,53.08
2017-04-09T11:00:29.793Z,50.74
2017-04-09T11:01:28.125Z,51.76
2017-04-09T11:02:26.445Z,46.70
2017-04-09T11:03:24.754Z,48.20
2017-04-09T11:04:23.068Z,47.38
2017-04-09T11:05:22.105Z,50.12
2017-04-09T11:06:20.419Z,49.34
2017-04-09T11:07:18.764Z,45.74
2017-04-09T11:08:17.071Z,43.54
2017-04-09T11:09:15.382Z,46.46
2017-04-09T11:10:13.730Z,44.68
2017-04-09T11:11:12.244Z,48.78
2017-04-09T11:12:10.573Z,49.46
2017-04-09T11:13:08.983Z,45.02
2017-04-09T11:14:07.316Z,46.24
2017-04-09T11:15:05.685Z,52.60
2017-04-09T11:16:03.986Z,48.30
2017-04-09T11:17:03.278Z,46.15
2017-04-09T11:18:01.570Z,50.84
2017-04-09T11:19:00.135Z,49.80
2017-04-09T11:19:58.523Z,46.70
2017-04-09T11:20:57.618Z,49.08
2017-04-09T11:21:56.241Z,47.68
2017-04-09T11:22:55.531Z,48.78
2017-04-09T11:23:54.750Z,43.98
2017-04-09T11:24:54.578Z,48.97
2017-04-09T11:25:53.653Z,46.68
2017-04-09T11:26:51.958Z,47.98
2017-04-09T11:27:50.267Z,47.63
2017-04-09T11:28:48.783Z,51.16
2017-04-09T11:29:47.102Z,51.48
2017-04-09T11:30:45.418Z,45.90
2017-04-09T11:31:43.729Z,50.23
2017-04-09T11:32:43.562Z,47.67
2017-04-09T11:33:42.722Z,48.43
2017-04-09T11:35:44.932Z,53.10
2017-04-09T11:36:44.175Z,49.28
2017-04-09T11:37:42.628Z,51.58
2017-04-09T11:38:41.119Z,50.08
2017-04-09T11:39:39.562Z,53.10
2017-04-09T11:40:38.287Z,49.08
2017-04-09T11:41:38.350Z,51.55
2017-04-09T11:42:36.818Z,45.33
2017-04-09T11:43:35.143Z,54.80
2017-04-09T11:44:34.373Z,54.08
2017-04-09T11:45:32.741Z,53.83
2017-04-09T11:46:31.136Z,52.70
2017-04-09T11:47:29.508Z,47.97
2017-04-09T11:48:29.367Z,54.20
2017-04-09T11:49:27.745Z,55.43
2017-04-09T11:50:26.054Z,48.12
2017-04-09T11:51:24.367Z,53.67
2017-04-09T11:52:22.747Z,48.58
2017-04-09T11:53:21.447Z,49.65
2017-04-09T11:54:19.757Z,47.32
2017-04-09T11:55:18.085Z,46.73
2017-04-09T11:56:16.454Z,49.60
2017-04-09T11:57:14.767Z,49.10
2017-04-09T11:58:13.069Z,51.10
2017-04-09T11:59:11.467Z,50.12
2017-04-09T12:00:09.762Z,52.95
2017-04-09T12:01:08.070Z,50.42
2017-04-09T12:02:06.379Z,53.60
2017-04-09T12:03:04.770Z,50.95
2017-04-09T12:04:03.092Z,53.37
2017-04-09T12:05:01.466Z,49.13
2017-04-09T12:05:59.770Z,47.38
2017-04-09T12:06:58.063Z,47.80
2017-04-09T12:07:56.377Z,43.13
2017-04-09T12:08:54.690Z,49.38
2017-04-09T12:09:52.994Z,55.68
2017-04-09T12:10:52.326Z,51.38
2017-04-09T12:11:51.405Z,45.87
2017-04-09T12:12:49.711Z,59.83
2017-04-09T12:13:48.016Z,53.88
2017-04-09T12:14:46.449Z,50.72
2017-04-09T12:15:44.745Z,48.07
2017-04-09T12:16:43.138Z,46.45
2017-04-09T12:17:41.434Z,47.05
2017-04-09T12:18:40.763Z,50.97
2017-04-09T12:19:39.074Z,50.63
2017-04-09T12:20:37.388Z,52.25
2017-04-09T12:21:35.778Z,49.28
2017-04-09T12:22:34.267Z,52.07
2017-04-09T12:23:32.574Z,47.58
2017-04-09T12:24:30.906Z,49.08
2017-04-09T12:25:33.311Z,50.55
2017-04-09T12:26:31.608Z,49.67
2017-04-09T12:27:29.890Z,50.38
2017-04-09T12:28:28.291Z,50.08
2017-04-09T12:29:26.589Z,49.07
2017-04-09T12:30:24.894Z,47.68
2017-04-09T12:31:23.185Z,47.45
2017-04-09T12:32:21.481Z,53.20
2017-04-09T12:33:19.781Z,48.62
2017-04-09T12:34:19.543Z,47.12
2017-04-09T12:35:17.883Z,49.57
2017-04-09T12:36:16.271Z,49.22
2017-04-09T12:37:14.558Z,47.52
2017-04-09T12:38:12.899Z,45.60
2017-04-09T12:39:11.197Z,45.43
2017-04-09T12:40:09.590Z,45.53
2017-04-09T12:41:07.903Z,47.28
2017-04-09T12:42:06.213Z,51.03
2017-04-09T12:43:04.513Z,45.30
2017-04-09T12:44:02.885Z,50.57
2017-04-09T12:45:01.243Z,47.77
2017-04-09T12:45:59.642Z,34.22
2017-04-09T12:46:57.938Z,32.97
2017-04-09T12:47:56.235Z,29.63
2017-04-09T12:48:54.522Z,32.62
2017-04-09T12:49:52.839Z,31.83
2017-04-09T12:50:51.150Z,32.33
2017-04-09T12:51:49.542Z,32.65
2017-04-09T12:52:47.874Z,35.42
2017-04-09T12:53:46.186Z,35.92
2017-04-09T12:54:44.482Z,37.28
2017-04-09T12:55:42.786Z,37.13
2017-04-09T12:56:41.151Z,32.20
2017-04-09T12:57:39.660Z,31.90
2017-04-09T12:58:39.489Z,31.28
2017-04-09T12:59:37.853Z,31.13
2017-04-09T13:00:37.270Z,27.95
2017-04-09T13:01:35.582Z,29.13
2017-04-09T13:02:34.363Z,31.65
2017-04-09T13:03:33.636Z,32.67
2017-04-09T13:04:32.046Z,27.62
2017-04-09T13:05:30.335Z,30.78
2017-04-09T13:06:28.649Z,31.15
2017-04-09T13:07:26.928Z,37.13
2017-04-09T13:08:25.226Z,30.80
2017-04-09T13:09:23.627Z,34.33
2017-04-09T13:10:21.949Z,32.05
2017-04-09T13:11:20.241Z,38.83
2017-04-09T13:12:18.550Z,32.52
2017-04-09T13:13:16.910Z,39.77
2017-04-09T13:14:15.199Z,33.83
2017-04-09T13:15:13.666Z,35.67
2017-04-09T13:16:12.001Z,38.75
2017-04-09T13:17:10.335Z,34.82
2017-04-09T13:18:08.630Z,37.10
2017-04-09T13:19:06.910Z,38.93
2017-04-09T13:20:05.195Z,44.80
2017-04-09T13:21:04.289Z,42.65
2017-04-09T13:22:02.594Z,38.77
2017-04-09T13:23:00.881Z,41.33
2017-04-09T13:23:59.205Z,42.20
2017-04-09T13:24:57.526Z,41.32
2017-04-09T13:25:55.876Z,46.85
2017-04-09T13:26:54.252Z,46.32
2017-04-09T13:27:52.638Z,48.03
2017-04-09T13:28:50.978Z,40.87
2017-04-09T13:29:49.278Z,39.85
2017-04-09T13:30:47.596Z,43.60
2017-04-09T13:31:45.918Z,40.72
2017-04-09T13:32:44.307Z,38.48
2017-04-09T13:33:42.677Z,39.17
2017-04-09T13:34:40.999Z,34.20
2017-04-09T13:35:39.293Z,39.52
2017-04-09T13:36:37.595Z,34.07
2017-04-09T13:37:35.905Z,31.12
2017-04-09T13:38:34.304Z,32.20
2017-04-09T13:39:32.616Z,35.45
2017-04-09T13:40:30.950Z,34.15
2017-04-09T13:41:29.234Z,33.93
2017-04-09T13:42:27.538Z,32.58
2017-04-09T13:43:25.842Z,35.32
2017-04-09T13:44:24.202Z,34.53
2017-04-09T13:45:22.500Z,34.25
2017-04-09T13:46:20.809Z,34.80
2017-04-09T13:47:19.118Z,26.50
2017-04-09T13:48:17.421Z,28.68
2017-04-09T13:49:15.717Z,20.65
2017-04-09T13:50:14.618Z,15.62
2017-04-09T13:51:12.925Z,17.55
2017-04-09T13:52:11.229Z,16.38
2017-04-09T13:53:09.539Z,15.85
2017-04-09T13:54:07.843Z,17.70
2017-04-09T13:55:06.147Z,19.02
2017-04-09T13:56:04.555Z,16.12
2017-04-09T13:57:02.959Z,17.02
2017-04-09T13:58:01.331Z,20.73
2017-04-09T13:58:59.623Z,18.13
2017-04-09T13:59:57.966Z,24.12
2017-04-09T14:00:56.293Z,18.02
2017-04-09T14:01:54.660Z,14.98
2017-04-09T14:02:52.966Z,22.48
2017-04-09T14:03:51.278Z,19.57
2017-04-09T14:04:49.571Z,22.42
2017-04-09T14:05:47.858Z,22.72
2017-04-09T14:06:46.350Z,23.13
2017-04-09T14:07:44.735Z,24.98
2017-04-09T14:08:43.118Z,19.87
2017-04-09T14:09:41.483Z,21.65
2017-04-09T14:10:39.802Z,29.62
2017-04-09T14:11:38.130Z,26.25
2017-04-09T14:12:36.458Z,25.33
2017-04-09T14:13:34.831Z,21.65
2017-04-09T14:14:33.182Z,26.98
2017-04-09T14:15:31.464Z,28.95
2017-04-09T14:16:29.807Z,24.10
2017-04-09T14:17:28.130Z,31.10
2017-04-09T14:18:26.458Z,27.60
2017-04-09T14:19:24.899Z,31.00
2017-04-09T14:20:23.222Z,30.52
2017-04-09T14:21:21.526Z,26.72
2017-04-09T14:22:19.816Z,32.40
2017-04-09T14:23:18.147Z,27.17
2017-04-09T14:24:16.503Z,31.70
2017-04-09T14:25:14.901Z,36.08
2017-04-09T14:26:13.426Z,31.38
2017-04-09T14:27:11.715Z,30.65
2017-04-09T14:28:10.052Z,25.27
2017-04-09T14:29:08.415Z,36.47
2017-04-09T14:30:06.738Z,28.12
2017-04-09T14:31:05.253Z,28.32
2017-04-09T14:32:04.375Z,29.63
2017-04-09T14:33:04.252Z,31.63
2017-04-09T14:34:03.349Z,28.92
2017-04-09T14:35:02.558Z,26.92
2017-04-09T14:36:00.930Z,30.05
2017-04-09T14:36:59.363Z,34.12
2017-04-09T14:37:57.706Z,25.93
2017-04-09T14:38:56.046Z,27.65
2017-04-09T14:39:54.377Z,24.45
2017-04-09T14:40:52.745Z,22.98
2017-04-09T14:41:51.142Z,22.83
2017-04-09T14:42:49.583Z,31.00
2017-04-09T14:43:48.862Z,26.38
2017-04-09T14:44:47.169Z,28.98
2017-04-09T17:26:29.198Z,29.72
2017-04-09T17:27:27.509Z,27.30
2017-04-09T17:28:25.857Z,27.03
2017-04-09T17:29:24.190Z,26.83
2017-04-09T17:30:22.522Z,30.85
2017-04-09T17:31:21.627Z,29.32
2017-04-09T17:32:19.958Z,26.95
2017-04-09T17:33:18.286Z,30.37
2017-04-09T17:34:17.426Z,30.08
2017-04-09T17:35:15.781Z,28.83
2017-04-09T17:36:14.190Z,24.28
2017-04-09T17:37:12.547Z,28.47
2017-04-09T17:38:10.869Z,28.05
2017-04-09T17:39:09.237Z,25.64
2017-04-09T17:40:08.345Z,22.98
2017-04-09T17:41:06.658Z,24.86
2017-04-09T17:42:05.748Z,28.40
2017-04-09T17:43:05.592Z,34.00
2017-04-09T17:44:03.923Z,29.18
2017-04-09T17:45:03.127Z,27.24
2017-04-09T17:46:01.446Z,28.64
2017-04-09T17:46:59.786Z,30.98
2017-04-09T17:47:58.155Z,27.02
2017-04-09T17:48:58.022Z,25.50
2017-04-09T17:49:57.843Z,26.92
2017-04-09T17:50:56.189Z,27.68
2017-04-09T17:51:55.258Z,23.84
2017-04-09T17:52:55.077Z,31.46
2017-04-09T17:53:54.173Z,33.00
2017-04-09T17:54:53.294Z,26.00
2017-04-09T17:55:51.618Z,29.54
2017-04-09T17:56:50.697Z,29.98
2017-04-09T18:09:54.512Z,27.36
2017-04-09T18:10:53.093Z,26.50
2017-04-09T18:11:51.590Z,27.34
2017-04-09T18:12:50.175Z,23.82
2017-04-09T18:13:48.588Z,27.84
2017-04-09T18:14:46.972Z,29.80
2017-04-09T18:15:45.507Z,26.90
2017-04-09T18:16:44.051Z,22.34
2017-04-09T18:17:42.486Z,29.88
2017-04-09T18:18:40.973Z,29.40
2017-04-09T18:19:39.629Z,31.30
2017-04-09T18:20:38.066Z,26.86
2017-04-09T18:21:38.945Z,27.26
2017-04-09T18:22:37.440Z,25.82
2017-04-09T18:23:36.780Z,26.52
2017-04-09T18:24:35.135Z,25.88
2017-04-09T18:25:33.536Z,29.94
2017-04-09T18:26:32.718Z,31.36
2017-04-09T18:27:31.063Z,23.96
2017-04-09T18:28:29.392Z,24.68
2017-04-09T18:29:27.730Z,33.34
2017-04-09T18:30:26.038Z,29.94
2017-04-09T18:31:24.429Z,33.20
2017-04-09T18:32:23.354Z,27.40
2017-04-09T18:33:21.965Z,25.66
2017-04-09T18:34:20.415Z,28.48
2017-04-09T18:35:18.791Z,30.52
2017-04-09T18:36:17.129Z,23.60
2017-04-09T18:37:16.217Z,27.54
2017-04-09T18:38:14.535Z,30.00
2017-04-09T18:39:12.890Z,29.16
2017-04-09T18:40:11.250Z,30.20
2017-04-09T18:41:09.579Z,30.42
2017-04-09T18:42:07.921Z,29.94
2017-04-09T18:43:06.355Z,29.76
2017-04-09T18:44:04.652Z,29.04
2017-04-09T18:45:02.972Z,33.06
2017-04-09T18:46:01.301Z,30.46
2017-04-09T18:46:59.622Z,32.64
2017-04-09T18:47:57.930Z,31.22
2017-04-09T18:48:56.446Z,29.64
2017-04-09T18:49:54.778Z,29.18
2017-04-09T18:50:53.113Z,30.20
2017-04-09T18:51:51.435Z,25.44
2017-04-09T18:52:49.745Z,30.00
2017-04-09T18:53:48.058Z,27.48
2017-04-09T18:54:46.803Z,31.00
2017-04-09T18:55:45.117Z,31.66
2017-04-09T18:56:43.511Z,27.62
2017-04-09T18:57:41.825Z,26.76
2017-04-09T18:58:40.794Z,25.28
2017-04-09T18:59:39.109Z,30.76
2017-04-09T19:00:37.441Z,33.52
2017-04-09T19:01:35.758Z,26.74
2017-04-09T19:02:34.183Z,25.94
2017-04-09T19:03:32.527Z,33.42
2017-04-09T19:04:30.840Z,31.12
2017-04-09T19:05:29.166Z,29.80
2017-04-09T19:06:27.491Z,30.90
2017-04-09T19:07:25.799Z,33.56
2017-04-09T19:08:24.178Z,30.68
2017-04-09T19:09:22.591Z,31.72
2017-04-09T19:10:21.024Z,30.28
2017-04-09T19:11:19.386Z,30.22
2017-04-09T19:12:17.715Z,29.40
2017-04-09T19:13:16.071Z,29.42
2017-04-09T19:14:14.507Z,32.52
2017-04-09T19:15:12.867Z,31.90
2017-04-09T19:16:11.179Z,31.60
2017-04-09T19:17:09.493Z,26.54
2017-04-09T19:18:07.846Z,31.46
2017-04-09T19:19:06.193Z,37.04
2017-04-09T19:20:04.603Z,34.04
2017-04-09T19:21:02.966Z,30.44
2017-04-09T19:22:01.335Z,30.60
2017-04-09T19:22:59.650Z,31.76
2017-04-09T19:23:57.975Z,35.56
2017-04-09T19:24:56.282Z,34.80
2017-04-09T19:25:54.713Z,35.54
2017-04-09T19:26:53.044Z,33.48
2017-04-09T19:37:31.549Z,29.10
2017-04-09T19:38:29.944Z,31.20
2017-04-09T19:39:28.334Z,36.64
2017-04-09T19:40:26.677Z,37.75
2017-04-09T19:41:25.234Z,31.42
2017-04-09T19:42:23.585Z,31.87
2017-04-09T19:43:22.015Z,32.02
2017-04-09T19:44:20.351Z,37.03
2017-04-09T19:45:18.754Z,29.10
2017-04-09T19:46:17.150Z,39.22
2017-04-09T19:47:15.469Z,32.66
2017-04-09T19:48:13.786Z,35.62
2017-04-09T19:49:12.203Z,35.72
2017-04-09T19:50:10.767Z,34.82
2017-04-09T19:51:09.484Z,30.84
2017-04-09T19:52:07.868Z,32.73
2017-04-09T19:53:06.223Z,36.40
2017-04-09T19:54:04.595Z,36.48
2017-04-09T19:55:03.030Z,28.53
2017-04-09T19:56:01.345Z,34.92
2017-04-09T19:56:59.665Z,35.38
2017-04-09T19:57:58.470Z,34.52
2017-04-09T19:58:56.894Z,32.92
2017-04-09T19:59:55.696Z,37.50
2017-04-09T20:00:54.308Z,31.87
2017-04-09T20:01:52.630Z,38.28
2017-04-09T20:02:51.346Z,31.84
2017-04-09T20:03:49.710Z,31.40
2017-04-09T20:04:48.034Z,33.15
2017-04-09T20:05:46.398Z,33.28
2017-04-09T20:06:44.794Z,33.75
2017-04-09T20:07:43.112Z,38.37
2017-04-09T20:08:41.438Z,31.28
2017-04-09T20:09:39.764Z,29.30
2017-04-09T20:10:38.089Z,35.50
2017-04-09T20:11:36.573Z,32.03
2017-04-09T20:12:34.978Z,35.42
2017-04-09T20:13:33.300Z,32.35
2017-04-09T20:14:31.615Z,32.02
2017-04-09T20:15:29.956Z,33.88
2017-04-09T20:16:28.262Z,29.37
2017-04-09T20:17:26.635Z,30.10
2017-04-09T20:18:25.021Z,37.57
2017-04-09T20:19:23.341Z,37.57
2017-04-09T20:20:21.918Z,35.60
2017-04-09T20:21:20.241Z,31.08
2017-04-09T20:22:18.587Z,34.43
2017-04-09T20:23:16.963Z,32.60
2017-04-09T20:24:15.353Z,36.53
2017-04-09T20:25:13.659Z,38.22
2017-04-09T20:26:11.989Z,35.38
2017-04-09T20:27:10.302Z,29.43
2017-04-09T20:28:08.646Z,41.62
2017-04-09T20:29:06.973Z,36.78
2017-04-09T20:30:05.358Z,28.72
2017-04-09T20:31:03.686Z,33.93
2017-04-09T20:32:01.997Z,39.03
2017-04-09T20:33:00.404Z,36.70
2017-04-09T20:33:58.710Z,34.80
2017-04-09T20:34:57.043Z,30.22
2017-04-09T20:35:55.455Z,28.90
2017-04-09T20:36:53.886Z,37.93
2017-04-09T20:37:52.287Z,32.32
2017-04-09T20:38:51.235Z,25.13
2017-04-09T20:39:49.603Z,31.12
2017-04-09T20:40:47.926Z,34.08
2017-04-09T20:41:46.319Z,29.48
2017-04-09T20:42:44.618Z,36.83
2017-04-09T20:43:42.990Z,31.70
2017-04-09T20:44:41.302Z,32.55
2017-04-09T20:45:39.656Z,34.32
2017-04-09T20:46:37.934Z,38.10
2017-04-09T20:47:36.347Z,30.73
2017-04-09T20:48:34.706Z,38.42
2017-04-09T20:49:33.029Z,30.67
2017-04-09T20:50:31.341Z,31.97
2017-04-09T20:51:29.693Z,27.55
2017-04-09T20:52:28.777Z,34.83
2017-04-09T20:53:27.198Z,34.48
2017-04-09T20:54:25.607Z,29.02
2017-04-09T20:55:23.938Z,28.80
2017-04-09T20:56:22.540Z,33.10
2017-04-09T20:57:20.833Z,33.53
2017-04-09T20:58:19.158Z,31.90
2017-04-09T20:59:17.593Z,29.12
2017-04-09T21:00:15.895Z,38.57
2017-04-09T21:01:14.217Z,27.45
2017-04-09T21:02:12.536Z,31.12
2017-04-09T21:03:10.843Z,33.13
2017-04-09T21:04:09.181Z,37.38
2017-04-09T21:05:07.617Z,31.28
2017-04-09T21:06:05.956Z,29.67
2017-04-09T21:07:04.294Z,30.42
2017-04-09T21:08:02.620Z,27.68
2017-04-09T21:09:00.967Z,29.38
2017-04-09T21:09:59.284Z,31.77
2017-04-09T21:10:57.686Z,31.18
2017-04-09T21:11:56.017Z,30.67
2017-04-09T21:12:54.349Z,29.80
2017-04-09T21:13:52.650Z,28.75
2017-04-09T21:14:50.959Z,26.70
2017-04-09T21:15:49.277Z,29.42
2017-04-09T21:16:47.676Z,32.12
2017-04-09T21:17:45.999Z,30.83
2017-04-09T21:18:44.309Z,30.07
2017-04-09T21:19:42.630Z,27.63
2017-04-09T21:20:40.929Z,27.32
2017-04-09T21:21:39.259Z,31.68
2017-04-09T21:22:37.653Z,27.62
2017-04-09T21:23:36.374Z,26.32
2017-04-09T21:24:34.722Z,29.53
2017-04-09T21:25:33.050Z,29.48
2017-04-09T21:26:31.353Z,33.65
2017-04-09T21:27:29.692Z,29.72
2017-04-09T21:28:28.070Z,26.18
2017-04-09T21:29:26.368Z,29.20
2017-04-09T21:30:24.691Z,27.43
2017-04-09T21:31:22.995Z,26.15
2017-04-09T21:32:21.387Z,26.65
2017-04-09T21:33:19.777Z,31.03
2017-04-09T21:34:18.191Z,24.27
2017-04-09T21:35:16.494Z,27.85
2017-04-09T21:36:14.810Z,24.92
2017-04-09T21:37:13.202Z,25.63
2017-04-09T21:38:11.515Z,29.10
2017-04-09T21:39:09.900Z,30.35
2017-04-09T21:40:08.408Z,27.73
2017-04-09T21:41:06.837Z,20.98
2017-04-09T21:42:05.178Z,29.90
2017-04-09T21:43:03.506Z,22.82
2017-04-09T21:44:01.825Z,26.85
2017-04-09T21:45:00.154Z,26.28
2017-04-09T21:45:58.552Z,22.48
2017-04-09T21:46:56.859Z,29.08
2017-04-09T21:47:55.402Z,23.47
2017-04-09T21:48:53.730Z,24.37
2017-04-09T21:49:52.059Z,25.25
2017-04-09T21:50:50.366Z,24.98
2017-04-09T21:51:48.768Z,19.92
2017-04-09T21:52:47.106Z,25.82
2017-04-09T21:53:45.414Z,27.25
2017-04-09T21:54:43.723Z,30.83
2017-04-09T21:55:42.027Z,29.47
2017-04-09T21:56:40.354Z,21.92
2017-04-09T21:57:38.785Z,22.73
2017-04-09T21:58:37.094Z,21.98
2017-04-09T21:59:35.391Z,22.53
2017-04-09T22:00:33.718Z,22.73
2017-04-09T22:01:32.044Z,23.17
2017-04-09T22:02:30.389Z,22.88
2017-04-09T22:03:28.786Z,24.87
2017-04-09T22:04:27.114Z,21.27
2017-04-09T22:05:25.435Z,19.95
2017-04-09T22:06:23.793Z,22.75
2017-04-09T22:07:22.132Z,23.90
2017-04-09T22:08:20.468Z,19.30
2017-04-09T22:09:18.915Z,24.95
2017-04-09T22:10:17.228Z,24.70
2017-04-09T22:11:15.546Z,24.58
2017-04-09T22:12:13.877Z,18.67
2017-04-09T22:13:12.185Z,23.02
2017-04-09T22:14:12.950Z,20.63
2017-04-09T22:15:11.321Z,19.10
2017-04-09T22:16:09.638Z,30.38
2017-04-09T22:17:07.943Z,28.55
2017-04-09T22:18:06.349Z,20.23
2017-04-09T22:19:04.722Z,20.05
2017-04-09T22:20:03.018Z,20.67
2017-04-09T22:21:01.402Z,22.68
2017-04-09T22:21:59.701Z,19.35
2017-04-09T22:22:58.006Z,23.42
2017-04-09T22:23:56.320Z,20.98
2017-04-09T22:24:54.642Z,20.70
2017-04-09T22:25:53.006Z,19.50
2017-04-09T22:26:51.410Z,19.72
2017-04-09T22:27:49.787Z,26.78
2017-04-09T22:28:48.111Z,20.13
2017-04-09T22:29:46.417Z,24.90
2017-04-09T22:30:44.774Z,28.75
2017-04-09T22:31:43.396Z,26.53
2017-04-09T22:32:41.705Z,20.67
2017-04-09T22:33:40.015Z,27.97
2017-04-09T22:34:38.387Z,19.72
2017-04-09T22:35:36.707Z,18.22
2017-04-09T22:36:35.001Z,23.03
2017-04-09T22:37:33.563Z,19.73
2017-04-09T22:38:31.924Z,19.10
2017-04-09T22:39:30.315Z,22.17
2017-04-09T22:40:28.629Z,21.15
2017-04-09T22:41:26.953Z,22.70
2017-04-09T22:42:25.288Z,20.75
2017-04-09T22:43:23.685Z,19.73
2017-04-09T22:44:21.983Z,21.53
2017-04-09T22:45:20.280Z,21.60
2017-04-09T22:46:18.584Z,18.82
2017-04-09T22:47:16.904Z,24.07
2017-04-09T22:48:15.233Z,22.60
2017-04-09T22:49:13.634Z,17.60
2017-04-09T22:50:12.002Z,18.70
2017-04-09T22:51:10.374Z,20.00
2017-04-09T22:52:08.694Z,20.27
2017-04-09T22:53:06.995Z,19.75
2017-04-09T22:54:05.300Z,19.03
2017-04-09T22:55:03.680Z,20.77
2017-04-09T22:56:01.996Z,16.60
2017-04-09T22:57:00.350Z,19.60
2017-04-09T22:57:58.642Z,20.10
2017-04-09T22:58:56.954Z,21.53
2017-04-09T22:59:55.315Z,17.63
2017-04-09T23:00:53.778Z,18.00
2017-04-09T23:01:52.072Z,18.62
2017-04-09T23:02:50.386Z,20.52
2017-04-09T23:03:48.704Z,20.67
2017-04-09T23:04:46.998Z,18.80
2017-04-09T23:05:45.347Z,23.98
2017-04-09T23:06:43.748Z,20.43
2017-04-09T23:07:42.139Z,21.58
2017-04-09T23:08:40.461Z,22.70
2017-04-09T23:09:38.805Z,18.10
2017-04-09T23:10:37.098Z,18.98
2017-04-09T23:11:35.417Z,16.52
2017-04-09T23:12:33.930Z,16.18
2017-04-09T23:13:32.242Z,16.33
2017-04-09T23:14:30.531Z,19.83
2017-04-09T23:15:28.848Z,16.97
2017-04-09T23:16:27.205Z,18.83
2017-04-09T23:17:25.522Z,14.90
2017-04-09T23:18:23.931Z,17.03
2017-04-09T23:19:22.238Z,22.83
2017-04-09T23:20:20.771Z,20.58
2017-04-09T23:21:19.481Z,19.60
2017-04-09T23:22:17.813Z,18.85
2017-04-09T23:23:16.111Z,16.95
2017-04-09T23:24:14.967Z,18.00
2017-04-09T23:25:13.274Z,16.25
2017-04-09T23:26:11.745Z,15.35
2017-04-09T23:27:10.049Z,18.50
2017-04-09T23:28:08.358Z,17.87
2017-04-09T23:29:06.696Z,18.33
2017-04-09T23:30:05.077Z,19.20
2017-04-09T23:31:03.407Z,18.38
2017-04-09T23:32:01.752Z,17.47
2017-04-09T23:33:00.102Z,21.43
2017-04-09T23:33:58.417Z,17.05
2017-04-09T23:34:56.769Z,19.28
2017-04-09T23:35:55.206Z,15.08
2017-04-09T23:36:53.499Z,14.45
2017-04-09T23:37:51.846Z,18.12
2017-04-09T23:38:50.166Z,19.92
2017-04-09T23:39:48.466Z,18.18
2017-04-09T23:40:46.743Z,17.67
2017-04-09T23:41:45.565Z,24.42
2017-04-09T23:42:43.863Z,16.47
2017-04-09T23:43:42.227Z,18.13
2017-04-09T23:44:40.574Z,13.92
2017-04-09T23:45:38.861Z,18.48
2017-04-09T23:46:37.153Z,15.85
2017-04-09T23:47:35.555Z,18.73
2017-04-09T23:48:33.885Z,16.28
2017-04-09T23:49:32.214Z,19.88
2017-04-09T23:50:30.515Z,17.23
2017-04-09T23:51:28.831Z,20.75
2017-04-09T23:52:27.132Z,21.77
2017-04-09T23:53:25.662Z,19.23
2017-04-09T23:54:24.029Z,21.47
2017-04-09T23:55:22.426Z,18.70
2017-04-09T23:56:20.993Z,14.32
2017-04-09T23:57:19.314Z,20.03
2017-04-09T23:58:17.629Z,15.63
2017-04-09T23:59:16.070Z,19.95
